Time;durP1;ratioP1;P1;durP2;ratioP2;P2;SDS_P1;SDS_P2;PMS_P1;PMS_P2;Temp;Humidity;BMP_temperature;BMP_pressure;BME280_temperature;BME280_humidity;BME280_pressure;Samples;Min_cycle;Max_cycle;Signal;HPM_P1;HPM_P2
2024/02/24 00:01:07;;;;;;;2.45;1.40;;;;;;;13.43;49.79;94265.88;4234967;27;20137;-70
2024/02/24 00:03:09;;;;;;;2.63;1.33;;;;;;;13.47;48.30;94225.03;4242277;27;20423;-70
2024/02/24 00:05:11;;;;;;;2.30;1.25;;;;;;;13.48;49.01;94232.72;4241421;27;20043;-69
2024/02/24 00:07:13;;;;;;;2.28;1.42;;;;;;;13.56;49.13;94237.06;4242942;27;20058;-69
2024/02/24 00:09:15;;;;;;;4.10;1.42;;;;;;;13.57;49.07;94236.03;4242086;27;20503;-69
2024/02/24 00:11:17;;;;;;;2.15;1.48;;;;;;;13.62;49.06;94244.22;4238240;27;20115;-70
2024/02/24 00:13:19;;;;;;;3.35;1.50;;;;;;;13.62;48.81;94246.03;4242381;27;20047;-70
2024/02/24 00:15:21;;;;;;;2.60;1.10;;;;;;;13.65;49.07;94235.94;4213042;28;20138;-72
2024/02/24 00:17:23;;;;;;;4.35;1.50;;;;;;;13.67;48.54;94236.56;4235202;27;20092;-69
2024/02/24 00:19:25;;;;;;;1.77;1.20;;;;;;;13.65;48.43;94251.72;4238922;27;20082;-70
2024/02/24 00:21:27;;;;;;;2.17;1.30;;;;;;;13.66;48.35;94234.13;4243171;27;20043;-67
2024/02/24 00:23:29;;;;;;;2.38;1.10;;;;;;;13.65;48.39;94235.94;4224807;28;20051;-68
2024/02/24 00:25:32;;;;;;;2.20;1.30;;;;;;;13.60;48.58;94248.84;4241969;27;20084;-70
2024/02/24 00:27:33;;;;;;;2.17;1.30;;;;;;;13.48;48.55;94245.09;4235965;27;20043;-70
2024/02/24 00:29:35;;;;;;;1.88;1.10;;;;;;;13.50;48.87;94254.41;4233224;28;20107;-70
2024/02/24 00:31:38;;;;;;;4.70;1.15;;;;;;;13.47;47.96;94239.00;4241784;27;20055;-70
2024/02/24 00:33:40;;;;;;;3.75;1.33;;;;;;;13.50;48.46;94237.81;4241607;28;20490;-71
2024/02/24 00:35:43;;;;;;;2.13;1.50;;;;;;;13.55;48.31;94259.13;4241020;28;20051;-70
2024/02/24 00:37:45;;;;;;;1.73;1.27;;;;;;;13.51;48.12;94258.69;4241846;28;20067;-68
2024/02/24 00:39:47;;;;;;;3.60;1.30;;;;;;;13.57;48.68;94235.25;4242336;28;20039;-68
2024/02/24 00:41:52;;;;;;;1.90;1.30;;;;;;;13.61;48.57;94249.66;4221828;28;20114;-71
2024/02/24 00:43:54;;;;;;;1.58;1.23;;;;;;;13.64;48.25;94250.09;4235404;28;20063;-68
2024/02/24 00:45:55;;;;;;;2.33;1.30;;;;;;;13.55;48.71;94221.44;4240624;28;20047;-70
2024/02/24 00:47:57;;;;;;;6.80;2.13;;;;;;;13.54;48.99;94254.06;4231640;28;20051;-68
2024/02/24 00:49:59;;;;;;;3.38;1.58;;;;;;;13.46;49.26;94231.28;4236894;28;20112;-70
2024/02/24 00:52:01;;;;;;;2.72;1.48;;;;;;;13.48;48.93;94251.16;4235096;28;20527;-72
2024/02/24 00:54:04;;;;;;;1.50;1.20;;;;;;;13.42;48.33;94217.72;4212938;28;20047;-69
2024/02/24 00:56:06;;;;;;;2.17;1.30;;;;;;;13.34;48.81;94241.50;4220587;28;20055;-70
2024/02/24 00:58:08;;;;;;;1.83;1.20;;;;;;;13.36;48.67;94228.16;4214270;28;20457;-69
2024/02/24 01:00:11;;;;;;;2.22;1.20;;;;;;;13.39;49.32;94236.50;4238512;28;20198;-69
2024/02/24 01:02:13;;;;;;;4.65;1.75;;;;;;;13.42;48.96;94244.03;4234982;28;20082;-68
2024/02/24 01:04:15;;;;;;;2.03;1.20;;;;;;;13.42;48.58;94224.78;4238593;28;20080;-70
2024/02/24 01:06:17;;;;;;;2.58;1.33;;;;;;;13.46;48.92;94229.47;4236624;28;20147;-70
2024/02/24 01:08:19;;;;;;;3.97;1.42;;;;;;;13.45;48.90;94230.50;4233553;28;20082;-68
2024/02/24 01:10:21;;;;;;;2.33;1.10;;;;;;;13.42;48.75;94246.66;4224300;28;20051;-68
2024/02/24 01:12:23;;;;;;;1.80;1.20;;;;;;;13.43;48.81;94224.59;4219783;28;20047;-70
2024/02/24 01:14:26;;;;;;;1.80;1.10;;;;;;;13.35;48.85;94250.22;4242585;27;20053;-68
2024/02/24 01:16:28;;;;;;;2.63;1.10;;;;;;;13.36;49.20;94254.47;4245144;27;20513;-68
2024/02/24 01:18:31;;;;;;;2.35;1.25;;;;;;;13.39;48.48;94249.66;4239377;27;20848;-67
2024/02/24 01:20:35;;;;;;;2.10;1.27;;;;;;;13.38;48.83;94245.41;4242687;27;20070;-68
2024/02/24 01:22:37;;;;;;;;;;;;;;;13.31;48.91;94245.34;4223035;28;20451;-70
2024/02/24 01:24:39;;;;;;;1.95;1.35;;;;;;;13.32;49.23;94236.44;4236517;27;19936;-70
2024/02/24 01:26:41;;;;;;;2.78;1.20;;;;;;;13.28;49.33;94242.22;4243502;27;20491;-68
2024/02/24 01:28:45;;;;;;;4.35;1.15;;;;;;;13.26;49.17;94252.13;4240567;27;20063;-69
2024/02/24 01:30:47;;;;;;;3.65;1.35;;;;;;;13.32;48.96;94249.59;4229559;27;20267;-68
2024/02/24 01:32:49;;;;;;;3.13;1.10;;;;;;;13.23;49.11;94245.41;4243549;27;20047;-69
2024/02/24 01:34:51;;;;;;;1.98;1.30;;;;;;;13.18;49.19;94271.44;4244575;27;20085;-70
2024/02/24 01:36:54;;;;;;;1.83;1.25;;;;;;;12.94;49.81;94243.66;4240562;27;20044;-69
2024/02/24 01:38:56;;;;;;;2.30;1.23;;;;;;;13.02;49.56;94251.47;4240975;27;20053;-68
2024/02/24 01:40:58;;;;;;;3.33;1.55;;;;;;;13.01;49.97;94259.53;4220839;28;20074;-70
2024/02/24 01:43:00;;;;;;;10.63;2.30;;;;;;;13.01;49.45;94222.72;4245304;27;20078;-68
2024/02/24 01:45:02;;;;;;;3.50;1.45;;;;;;;13.02;49.98;94224.34;4221858;28;20115;-68
2024/02/24 01:47:04;;;;;;;5.03;1.40;;;;;;;12.90;50.50;94221.38;4235902;27;20394;-69
2024/02/24 01:49:07;;;;;;;3.08;1.42;;;;;;;12.75;50.71;94217.97;4233256;27;20059;-69
2024/02/24 01:51:10;;;;;;;5.13;1.30;;;;;;;12.83;50.34;94215.25;4242164;27;20429;-68
2024/02/24 01:53:12;;;;;;;2.55;1.48;;;;;;;12.90;49.89;94216.13;4226040;28;20043;-69
2024/02/24 01:55:16;;;;;;;4.63;1.27;;;;;;;12.88;50.05;94220.75;4242429;27;20123;-71
2024/02/24 01:57:18;;;;;;;3.80;1.40;;;;;;;12.91;49.83;94213.31;4241287;27;20042;-67
2024/02/24 01:59:20;;;;;;;5.35;1.27;;;;;;;12.94;50.04;94195.53;4242018;27;20107;-69
2024/02/24 02:01:22;;;;;;;1.63;1.10;;;;;;;12.98;49.34;94196.81;4242128;27;20103;-69
2024/02/24 02:03:24;;;;;;;1.50;1.00;;;;;;;13.06;48.82;94207.22;4238178;27;20047;-69
2024/02/24 02:05:26;;;;;;;2.55;1.30;;;;;;;13.05;48.55;94198.47;4240109;27;20043;-70
2024/02/24 02:07:28;;;;;;;2.88;1.17;;;;;;;12.99;48.72;94194.00;4222873;28;20511;-70
2024/02/24 02:09:30;;;;;;;2.22;1.10;;;;;;;13.08;48.05;94192.06;4226729;27;20047;-69
2024/02/24 02:11:32;;;;;;;1.88;1.10;;;;;;;13.08;48.28;94198.13;4216468;28;20476;-71
2024/02/24 02:13:42;;;;;;;2.00;1.20;;;;;;;13.11;47.79;94189.03;4227762;27;20059;-69
2024/02/24 02:15:44;;;;;;;2.80;1.10;;;;;;;13.17;47.54;94200.66;4225666;28;20047;-71
2024/02/24 02:17:46;;;;;;;6.35;3.38;;;;;;;13.04;48.69;94207.38;4243292;27;20066;-71
2024/02/24 02:19:48;;;;;;;4.75;3.17;;;;;;;12.98;48.85;94223.91;4225288;28;20251;-70
2024/02/24 02:21:50;;;;;;;6.45;5.05;;;;;;;12.44;49.79;94213.75;4243616;27;20115;-69
2024/02/24 02:23:52;;;;;;;7.70;4.70;;;;;;;12.26;50.74;94240.34;4207155;28;20498;-70
2024/02/24 02:25:54;;;;;;;8.25;5.65;;;;;;;11.54;52.33;94230.34;4234408;27;20051;-72
2024/02/24 02:27:57;;;;;;;11.52;6.50;;;;;;;10.35;55.51;94214.00;4238267;27;20134;-71
2024/02/24 02:30:01;;;;;;;8.57;6.68;;;;;;;10.21;56.03;94228.56;4224014;28;20051;-71
2024/02/24 02:32:03;;;;;;;11.02;7.38;;;;;;;10.03;56.12;94223.56;4243289;27;20055;-70
2024/02/24 02:34:05;;;;;;;9.30;7.70;;;;;;;9.82;56.77;94224.88;4244575;27;20049;-69
2024/02/24 02:36:07;;;;;;;9.80;7.43;;;;;;;9.77;57.23;94234.25;4241731;27;20049;-70
2024/02/24 02:38:10;;;;;;;9.20;7.85;;;;;;;9.92;57.02;94231.75;4242325;27;20062;-69
2024/02/24 02:40:12;;;;;;;10.55;8.35;;;;;;;9.91;56.78;94248.44;4238953;27;20076;-69
2024/02/24 02:42:14;;;;;;;9.82;7.60;;;;;;;9.86;56.71;94240.28;4241900;27;20120;-68
2024/02/24 02:44:16;;;;;;;8.90;7.68;;;;;;;9.89;56.37;94261.66;4243797;27;20130;-68
2024/02/24 02:46:18;;;;;;;9.43;7.40;;;;;;;9.58;57.76;94227.53;4238862;27;20492;-68
2024/02/24 02:48:20;;;;;;;14.75;7.60;;;;;;;9.60;57.82;94247.31;4229348;27;20176;-69
2024/02/24 02:50:22;;;;;;;10.23;7.68;;;;;;;9.79;57.74;94255.81;4243172;27;20039;-69
2024/02/24 02:52:27;;;;;;;6.68;5.65;;;;;;;9.68;57.31;94248.28;4243548;27;20134;-68
2024/02/24 02:54:30;;;;;;;9.27;5.82;;;;;;;9.83;56.62;94252.69;4222490;28;20142;-69
2024/02/24 02:56:32;;;;;;;9.55;5.38;;;;;;;10.03;56.30;94257.56;4209621;28;20054;-70
2024/02/24 02:58:35;;;;;;;7.85;5.20;;;;;;;10.24;56.11;94254.44;4230125;27;20436;-70
2024/02/24 03:00:38;;;;;;;6.68;5.10;;;;;;;10.13;55.95;94258.22;4232356;27;20048;-71
2024/02/24 03:02:39;;;;;;;12.57;6.03;;;;;;;9.84;56.68;94253.50;4217313;28;20586;-72
2024/02/24 03:04:42;;;;;;;8.07;6.40;;;;;;;9.94;56.81;94256.78;4232871;27;20135;-69
2024/02/24 03:06:44;;;;;;;9.00;6.20;;;;;;;10.00;56.34;94269.19;4237970;27;20058;-69
2024/02/24 03:08:46;;;;;;;8.98;6.70;;;;;;;10.00;56.58;94263.97;4242436;27;20514;-68
2024/02/24 03:10:48;;;;;;;8.20;6.47;;;;;;;10.08;56.34;94260.50;4234826;27;20055;-67
2024/02/24 03:12:50;;;;;;;9.35;6.90;;;;;;;9.89;57.05;94239.94;4242522;27;20129;-69
2024/02/24 03:14:52;;;;;;;8.57;6.20;;;;;;;9.93;56.98;94255.13;4240791;27;20066;-69
2024/02/24 03:16:54;;;;;;;6.35;5.10;;;;;;;9.82;56.67;94251.06;4230590;27;20070;-68
2024/02/24 03:18:56;;;;;;;9.40;6.03;;;;;;;9.88;56.87;94239.13;4243841;27;20055;-67
2024/02/24 03:20:58;;;;;;;7.13;5.82;;;;;;;10.00;56.46;94252.66;4243080;27;20134;-68
2024/02/24 03:23:03;;;;;;;8.68;6.75;;;;;;;9.75;57.60;94231.78;4242980;27;20104;-68
2024/02/24 03:25:07;;;;;;;9.85;6.60;;;;;;;9.78;57.42;94241.91;4240423;27;20466;-69
2024/02/24 03:27:13;;;;;;;8.82;6.25;;;;;;;9.89;57.41;94260.84;4234557;27;20119;-68
2024/02/24 03:29:16;;;;;;;8.45;6.40;;;;;;;9.99;57.08;94257.09;4222687;28;20512;-69
2024/02/24 03:31:18;;;;;;;7.82;5.40;;;;;;;10.08;56.43;94263.13;4224935;28;20036;-69
2024/02/24 03:33:20;;;;;;;8.05;5.70;;;;;;;10.15;56.22;94258.88;4243469;27;20283;-70
2024/02/24 03:35:21;;;;;;;7.22;6.25;;;;;;;10.10;56.32;94273.44;4240580;27;20061;-69
2024/02/24 03:37:23;;;;;;;9.13;5.93;;;;;;;9.87;56.94;94268.06;4242397;27;20043;-69
2024/02/24 03:39:27;;;;;;;11.80;6.03;;;;;;;9.62;58.05;94268.88;4243082;27;20073;-67
2024/02/24 03:41:32;;;;;;;6.63;5.88;;;;;;;9.63;57.98;94277.53;4224418;28;20473;-70
2024/02/24 03:43:35;;;;;;;8.07;6.35;;;;;;;9.59;58.14;94284.91;4224012;28;20101;-69
2024/02/24 03:45:37;;;;;;;10.45;5.82;;;;;;;9.77;57.58;94279.50;4242895;27;20055;-69
2024/02/24 03:47:39;;;;;;;10.55;6.57;;;;;;;9.94;57.21;94289.97;4243193;27;20058;-71
2024/02/24 03:49:41;;;;;;;9.75;6.40;;;;;;;10.03;57.15;94299.44;4222623;28;20465;-70
2024/02/24 03:51:43;;;;;;;10.70;6.50;;;;;;;9.91;57.37;94290.28;4221985;28;20460;-68
2024/02/24 03:53:45;;;;;;;10.70;6.80;;;;;;;9.93;57.17;94304.03;4243201;27;20043;-69
2024/02/24 03:55:48;;;;;;;7.72;6.00;;;;;;;9.96;57.02;94301.06;4242897;27;20498;-69
2024/02/24 03:57:49;;;;;;;7.65;5.93;;;;;;;9.69;57.65;94291.78;4242215;27;20383;-71
2024/02/24 03:59:51;;;;;;;6.70;6.00;;;;;;;9.77;57.29;94300.44;4242840;27;20051;-70
2024/02/24 04:01:53;;;;;;;8.68;5.75;;;;;;;9.88;57.39;94301.09;4234756;27;20102;-68
2024/02/24 04:03:55;;;;;;;7.95;6.05;;;;;;;9.93;57.09;94311.88;4234312;27;20062;-69
2024/02/24 04:05:57;;;;;;;8.27;6.55;;;;;;;9.92;57.23;94307.66;4217023;28;20043;-67
2024/02/24 04:07:59;;;;;;;8.73;6.78;;;;;;;9.82;57.31;94298.13;4219440;28;20093;-69
2024/02/24 04:10:01;;;;;;;13.38;7.40;;;;;;;9.75;57.44;94291.94;4229310;27;20051;-70
2024/02/24 04:12:03;;;;;;;10.82;7.20;;;;;;;9.89;57.35;94294.88;4240351;27;20039;-69
2024/02/24 04:14:06;;;;;;;19.17;6.50;;;;;;;9.98;57.24;94296.50;4239103;27;20047;-67
2024/02/24 04:16:07;;;;;;;7.20;6.13;;;;;;;10.05;56.94;94297.47;4237554;27;20453;-68
2024/02/24 04:18:09;;;;;;;7.40;5.90;;;;;;;10.14;56.70;94312.19;4229814;27;20075;-68
2024/02/24 04:20:13;;;;;;;9.75;6.25;;;;;;;10.15;56.78;94308.59;4220166;28;20052;-69
2024/02/24 04:22:15;;;;;;;7.47;5.35;;;;;;;10.20;56.40;94316.75;4241462;27;20040;-68
2024/02/24 04:24:17;;;;;;;8.35;5.88;;;;;;;10.16;55.98;94310.22;4241925;27;20126;-69
2024/02/24 04:26:19;;;;;;;7.07;5.93;;;;;;;9.96;57.21;94308.91;4241810;27;20051;-71
2024/02/24 04:28:21;;;;;;;8.30;6.43;;;;;;;9.77;57.56;94300.44;4240291;27;20440;-70
2024/02/24 04:30:23;;;;;;;7.18;5.90;;;;;;;9.54;58.08;94299.44;4235081;27;20040;-69
2024/02/24 04:32:27;;;;;;;8.73;6.40;;;;;;;9.36;58.73;94300.41;4243205;27;20193;-68
2024/02/24 04:34:29;;;;;;;9.32;6.32;;;;;;;9.19;59.65;94294.34;4242528;28;20129;-70
2024/02/24 04:36:31;;;;;;;7.65;5.80;;;;;;;9.21;59.25;94299.41;4236969;28;20502;-68
2024/02/24 04:38:33;;;;;;;8.40;6.22;;;;;;;9.34;59.40;94301.56;4219678;28;20627;-71
2024/02/24 04:40:35;;;;;;;8.05;6.15;;;;;;;9.55;58.72;94306.31;4234210;28;20043;-69
2024/02/24 04:42:37;;;;;;;11.65;6.82;;;;;;;9.74;58.47;94308.59;4239238;28;20055;-69
2024/02/24 04:44:39;;;;;;;9.98;6.30;;;;;;;9.89;58.04;94302.72;4238567;28;20047;-70
2024/02/24 04:46:41;;;;;;;8.63;5.20;;;;;;;9.96;57.42;94311.53;4238022;28;20109;-68
2024/02/24 04:48:43;;;;;;;10.43;6.03;;;;;;;10.06;56.94;94320.03;4241098;28;20046;-70
2024/02/24 04:50:45;;;;;;;9.82;6.70;;;;;;;10.19;56.69;94319.53;4225556;28;20044;-68
2024/02/24 04:52:47;;;;;;;7.35;5.53;;;;;;;10.17;56.58;94321.50;4215713;27;20155;-68
2024/02/24 04:54:49;;;;;;;7.28;5.30;;;;;;;10.25;56.83;94314.44;4222771;28;20460;-67
2024/02/24 04:56:51;;;;;;;8.95;5.80;;;;;;;10.27;55.99;94316.09;4243712;27;20490;-69
2024/02/24 04:58:53;;;;;;;9.70;5.10;;;;;;;10.17;56.14;94330.16;4207294;28;20434;-69
2024/02/24 05:00:55;;;;;;;4.63;2.47;;;;;;;10.64;52.80;94313.72;4216172;28;20043;-70
2024/02/24 05:02:58;;;;;;;3.63;2.22;;;;;;;10.81;52.53;94321.53;4245755;27;20499;-69
2024/02/24 05:05:00;;;;;;;5.00;4.18;;;;;;;10.95;52.86;94320.84;4245062;27;20055;-70
2024/02/24 05:07:02;;;;;;;10.32;5.13;;;;;;;10.99;53.40;94327.38;4244334;27;21157;-70
2024/02/24 05:09:05;;;;;;;6.28;5.00;;;;;;;11.00;53.35;94330.81;4225793;28;20048;-70
2024/02/24 05:11:07;;;;;;;7.32;4.45;;;;;;;10.97;53.78;94331.97;4218449;28;20178;-71
2024/02/24 05:13:10;;;;;;;7.35;4.65;;;;;;;10.98;53.82;94341.47;4236194;27;20127;-70
2024/02/24 05:15:12;;;;;;;6.72;4.28;;;;;;;10.96;53.54;94347.88;4242395;27;20483;-69
2024/02/24 05:17:16;;;;;;;7.40;4.18;;;;;;;10.97;53.47;94350.31;4245378;27;20436;-68
2024/02/24 05:19:18;;;;;;;10.23;4.97;;;;;;;10.97;53.54;94355.56;4232219;27;20104;-67
2024/02/24 05:21:21;;;;;;;6.78;5.30;;;;;;;10.91;53.97;94364.09;4243658;27;20039;-69
2024/02/24 05:23:23;;;;;;;9.73;5.72;;;;;;;10.90;53.97;94372.13;4221163;28;20494;-69
2024/02/24 05:25:24;;;;;;;6.82;5.28;;;;;;;10.80;54.28;94357.41;4239649;27;20054;-70
2024/02/24 05:27:26;;;;;;;8.00;5.05;;;;;;;10.08;56.30;94367.00;4240819;27;20100;-70
2024/02/24 05:29:28;;;;;;;7.82;5.47;;;;;;;9.68;57.57;94369.44;4239278;27;20055;-70
2024/02/24 05:31:30;;;;;;;7.00;5.20;;;;;;;9.76;57.27;94372.03;4236435;27;20573;-70
2024/02/24 05:33:32;;;;;;;6.25;5.15;;;;;;;9.53;58.18;94384.94;4243510;27;20122;-70
2024/02/24 05:35:35;;;;;;;10.95;5.90;;;;;;;9.63;58.20;94397.84;4245792;27;20051;-69
2024/02/24 05:37:36;;;;;;;11.70;5.60;;;;;;;9.81;57.91;94401.16;4244918;27;20183;-68
2024/02/24 05:39:38;;;;;;;7.88;5.65;;;;;;;9.97;57.12;94404.78;4245789;27;20050;-69
2024/02/24 05:41:40;;;;;;;11.90;5.15;;;;;;;9.98;56.88;94393.31;4244828;27;20307;-69
2024/02/24 05:43:42;;;;;;;9.02;5.10;;;;;;;10.09;56.69;94398.25;4244850;27;20464;-71
2024/02/24 05:45:44;;;;;;;9.20;5.25;;;;;;;10.18;56.48;94399.88;4225111;28;20212;-69
2024/02/24 05:47:46;;;;;;;10.27;5.78;;;;;;;10.30;56.18;94402.19;4244968;27;20127;-69
2024/02/24 05:49:48;;;;;;;13.60;5.60;;;;;;;9.86;56.56;94405.91;4243519;27;20112;-71
2024/02/24 05:51:50;;;;;;;8.05;5.85;;;;;;;9.55;57.68;94427.44;4221754;28;20164;-70
2024/02/24 05:53:52;;;;;;;9.57;5.53;;;;;;;9.69;58.44;94428.59;4245493;27;20059;-69
2024/02/24 05:55:54;;;;;;;9.48;5.57;;;;;;;9.86;57.07;94426.84;4225268;27;20063;-71
2024/02/24 05:57:56;;;;;;;15.75;6.07;;;;;;;9.93;57.37;94442.72;4244974;27;20505;-70
2024/02/24 05:59:59;;;;;;;10.10;5.47;;;;;;;10.05;57.06;94433.56;4227188;28;20062;-71
2024/02/24 06:02:01;;;;;;;8.00;5.70;;;;;;;10.20;56.58;94423.28;4226168;28;20138;-70
2024/02/24 06:04:04;;;;;;;6.65;5.18;;;;;;;10.33;56.11;94417.59;4223073;28;20048;-70
2024/02/24 06:06:07;;;;;;;11.65;5.47;;;;;;;10.38;56.19;94429.19;4240910;27;20043;-69
2024/02/24 06:08:09;;;;;;;13.18;6.22;;;;;;;10.50;56.02;94428.88;4245373;27;20049;-69
2024/02/24 06:10:12;;;;;;;11.85;6.22;;;;;;;10.15;56.70;94428.16;4245026;27;20051;-72
2024/02/24 06:12:14;;;;;;;12.70;7.60;;;;;;;9.92;56.92;94434.03;4241957;27;20043;-69
2024/02/24 06:14:15;;;;;;;11.38;6.47;;;;;;;9.76;57.48;94429.59;4244782;27;20443;-70
2024/02/24 06:16:18;;;;;;;12.13;6.72;;;;;;;9.83;58.38;94438.44;4241873;27;20335;-70
2024/02/24 06:18:20;;;;;;;7.78;5.93;;;;;;;10.06;57.97;94443.06;4244944;27;20057;-69
2024/02/24 06:20:23;;;;;;;7.88;7.05;;;;;;;10.28;57.65;94436.34;4243776;27;20093;-71
2024/02/24 06:22:26;;;;;;;9.52;5.80;;;;;;;10.06;57.54;94440.44;4244145;27;20043;-69
2024/02/24 06:24:28;;;;;;;11.82;6.05;;;;;;;10.10;57.71;94446.97;4244002;27;20053;-70
2024/02/24 06:26:30;;;;;;;9.27;6.80;;;;;;;10.19;57.01;94446.00;4243283;27;20047;-70
2024/02/24 06:28:35;;;;;;;18.40;6.87;;;;;;;10.43;57.11;94442.63;4233647;27;20151;-70
2024/02/24 06:30:37;;;;;;;;;;;;;;;10.17;56.82;94436.69;4241674;27;20758;-69
2024/02/24 06:32:39;;;;;;;11.02;6.40;;;;;;;10.04;57.38;94443.22;4231580;27;19939;-70
2024/02/24 06:34:43;;;;;;;13.05;6.18;;;;;;;10.15;57.44;94439.47;4244942;27;20053;-69
2024/02/24 06:36:45;;;;;;;16.40;7.00;;;;;;;10.22;57.26;94435.22;4238168;27;20051;-70
2024/02/24 06:38:46;;;;;;;12.65;6.90;;;;;;;10.36;57.24;94430.34;4230420;27;20054;-69
2024/02/24 06:40:48;;;;;;;10.60;6.07;;;;;;;10.67;56.66;94438.34;4224062;28;20060;-70
2024/02/24 06:42:50;;;;;;;12.48;6.18;;;;;;;11.04;55.86;94440.38;4244160;27;20079;-70
2024/02/24 06:44:52;;;;;;;11.77;5.60;;;;;;;10.74;55.12;94413.09;4244375;27;20777;-70
2024/02/24 06:46:54;;;;;;;11.00;6.15;;;;;;;10.95;55.21;94423.06;4232186;27;20485;-70
2024/02/24 06:48:56;;;;;;;9.75;5.95;;;;;;;11.28;54.72;94430.81;4232636;27;20744;-70
2024/02/24 06:50:59;;;;;;;10.50;6.55;;;;;;;11.11;54.35;94439.72;4241661;27;20401;-71
2024/02/24 06:53:00;;;;;;;9.05;6.75;;;;;;;10.72;55.40;94437.84;4244021;27;20062;-70
2024/02/24 06:55:03;;;;;;;12.25;7.18;;;;;;;10.53;56.40;94408.38;4240576;27;20047;-70
2024/02/24 06:57:04;;;;;;;12.55;6.68;;;;;;;10.78;55.96;94401.31;4242430;27;20103;-70
2024/02/24 06:59:06;;;;;;;7.60;6.00;;;;;;;11.13;55.34;94414.97;4243737;27;20055;-71
2024/02/24 07:01:08;;;;;;;9.98;6.60;;;;;;;11.46;54.07;94436.66;4244677;27;20126;-70
2024/02/24 07:03:11;;;;;;;9.27;5.82;;;;;;;11.71;53.27;94454.88;4244210;27;20043;-70
2024/02/24 07:05:13;;;;;;;8.82;6.05;;;;;;;11.72;52.86;94435.50;4243833;27;20058;-71
2024/02/24 07:07:15;;;;;;;7.03;5.65;;;;;;;11.33;53.34;94418.00;4243509;27;20501;-70
2024/02/24 07:09:17;;;;;;;11.55;6.10;;;;;;;11.01;54.26;94424.16;4242305;27;20108;-71
2024/02/24 07:11:19;;;;;;;9.73;6.40;;;;;;;10.81;54.62;94414.06;4241316;27;20043;-70
2024/02/24 07:13:22;;;;;;;14.02;6.25;;;;;;;10.75;55.14;94425.22;4217618;27;20063;-70
2024/02/24 07:15:25;;;;;;;9.85;5.97;;;;;;;10.64;55.63;94426.38;4243479;27;20043;-71
2024/02/24 07:17:27;;;;;;;;;;;;;;;11.12;54.80;94425.63;4244395;27;20057;-71
2024/02/24 07:19:29;;;;;;;12.43;5.85;;;;;;;11.55;54.11;94429.56;4238321;27;19963;-70
2024/02/24 07:21:31;;;;;;;10.57;5.90;;;;;;;11.92;53.12;94422.00;4232501;27;20074;-72
2024/02/24 07:23:33;;;;;;;12.43;6.82;;;;;;;12.23;52.29;94435.88;4221652;28;20081;-69
2024/02/24 07:25:35;;;;;;;12.48;6.78;;;;;;;12.49;51.32;94426.81;4239633;27;20431;-70
2024/02/24 07:27:37;;;;;;;12.65;6.63;;;;;;;12.10;51.10;94412.03;4237731;27;20047;-71
2024/02/24 07:29:39;;;;;;;9.32;7.05;;;;;;;11.67;52.47;94419.47;4234066;27;20044;-70
2024/02/24 07:31:41;;;;;;;9.98;7.20;;;;;;;11.59;52.82;94419.50;4241210;27;20471;-69
2024/02/24 07:33:42;;;;;;;13.30;6.63;;;;;;;11.73;52.70;94433.72;4240328;27;20282;-68
2024/02/24 07:35:45;;;;;;;10.82;7.82;;;;;;;12.08;52.06;94435.00;4242852;27;20065;-71
2024/02/24 07:37:48;;;;;;;10.65;7.35;;;;;;;12.47;51.50;94437.50;4238322;27;20088;-70
2024/02/24 07:39:50;;;;;;;15.18;7.95;;;;;;;12.83;50.79;94447.38;4237555;27;20047;-70
2024/02/24 07:41:52;;;;;;;17.40;8.23;;;;;;;13.15;50.42;94449.88;4239914;27;20040;-73
2024/02/24 07:43:54;;;;;;;11.52;7.82;;;;;;;13.42;49.73;94451.06;4240076;27;20396;-69
2024/02/24 07:45:56;;;;;;;10.50;6.60;;;;;;;13.26;48.43;94442.31;4236473;27;20201;-69
2024/02/24 07:47:58;;;;;;;14.57;7.05;;;;;;;12.49;50.38;94437.31;4218916;28;20139;-70
2024/02/24 07:50:00;;;;;;;10.25;7.40;;;;;;;12.18;51.45;94443.47;4242485;27;20065;-69
2024/02/24 07:52:04;;;;;;;12.65;8.40;;;;;;;12.22;51.69;94444.75;4231939;27;20570;-70
2024/02/24 07:54:06;;;;;;;18.63;8.32;;;;;;;12.14;51.80;94444.00;4223342;28;20086;-70
2024/02/24 07:56:07;;;;;;;12.35;7.25;;;;;;;12.45;51.68;94454.44;4211644;28;20067;-71
2024/02/24 07:58:09;;;;;;;14.57;7.38;;;;;;;12.85;50.92;94462.97;4242507;27;20057;-72
2024/02/24 08:00:12;;;;;;;15.80;7.30;;;;;;;13.19;49.77;94457.22;4237142;27;20070;-71
2024/02/24 08:02:14;;;;;;;10.23;6.28;;;;;;;12.98;49.63;94450.03;4204030;28;20040;-71
2024/02/24 08:04:16;;;;;;;12.43;7.70;;;;;;;12.72;50.23;94454.88;4231903;27;20046;-71
2024/02/24 08:06:18;;;;;;;12.07;7.55;;;;;;;12.80;50.37;94449.53;4222627;28;20048;-71
2024/02/24 08:08:20;;;;;;;17.60;7.28;;;;;;;13.02;49.78;94456.56;4242330;27;20471;-70
2024/02/24 08:10:22;;;;;;;7.68;5.22;;;;;;;13.31;48.23;94462.84;4243391;27;20043;-70
2024/02/24 08:12:24;;;;;;;7.63;3.05;;;;;;;13.63;46.07;94455.59;4241071;27;20047;-71
2024/02/24 08:14:26;;;;;;;7.80;3.65;;;;;;;13.95;45.50;94445.63;4240847;27;20040;-70
2024/02/24 08:16:28;;;;;;;3.40;2.28;;;;;;;14.14;43.66;94450.28;4239705;27;20512;-70
2024/02/24 08:18:30;;;;;;;6.97;3.40;;;;;;;14.36;44.03;94466.13;4239418;27;20116;-71
2024/02/24 08:20:32;;;;;;;7.50;2.67;;;;;;;14.60;43.00;94465.75;4221446;28;20651;-70
2024/02/24 08:22:39;;;;;;;5.60;2.30;;;;;;;14.90;43.18;94473.50;4231786;27;20054;-70
2024/02/24 08:24:41;;;;;;;7.90;3.10;;;;;;;15.04;42.83;94472.59;4240707;27;20043;-70
2024/02/24 08:26:44;;;;;;;12.35;3.60;;;;;;;15.24;43.06;94456.91;4206219;28;20187;-70
2024/02/24 08:28:46;;;;;;;12.27;4.00;;;;;;;15.29;43.12;94464.25;4227823;27;20059;-73
2024/02/24 08:30:48;;;;;;;6.93;3.95;;;;;;;15.36;43.30;94470.38;4239536;27;20467;-70
2024/02/24 08:32:51;;;;;;;10.63;3.95;;;;;;;15.45;42.83;94466.56;4240559;27;20146;-69
2024/02/24 08:34:53;;;;;;;;;;;;;;;15.52;42.66;94458.69;4242975;27;20043;-70
2024/02/24 08:36:55;;;;;;;7.40;3.50;;;;;;;15.74;42.52;94451.50;4224142;28;20010;-71
2024/02/24 08:38:58;;;;;;;6.03;3.15;;;;;;;15.56;41.49;94458.09;4240660;28;20081;-72
2024/02/24 08:41:00;;;;;;;8.38;2.95;;;;;;;15.67;41.27;94466.47;4242836;28;20497;-71
2024/02/24 08:43:02;;;;;;;8.55;3.45;;;;;;;15.60;41.56;94463.81;4240499;28;20047;-70
2024/02/24 08:45:05;;;;;;;6.78;2.60;;;;;;;15.89;41.49;94475.94;4242562;28;20047;-71
2024/02/24 08:47:07;;;;;;;7.30;2.20;;;;;;;15.89;40.50;94469.84;4234606;28;20050;-71
2024/02/24 08:49:09;;;;;;;7.15;2.72;;;;;;;15.84;40.97;94465.16;4242297;28;20043;-71
2024/02/24 08:51:10;;;;;;;3.72;2.10;;;;;;;15.81;40.89;94465.56;4242238;28;20427;-71
2024/02/24 08:53:12;;;;;;;9.65;3.42;;;;;;;15.70;40.75;94460.78;4242646;28;20400;-72
2024/02/24 08:55:14;;;;;;;4.65;2.40;;;;;;;15.82;40.80;94472.47;4242707;28;20050;-72
2024/02/24 08:57:16;;;;;;;8.77;2.70;;;;;;;15.70;40.58;94482.75;4241479;28;20467;-73
2024/02/24 08:59:18;;;;;;;6.65;2.60;;;;;;;15.56;40.53;94471.31;4211031;28;20052;-72
2024/02/24 09:01:20;;;;;;;5.82;2.33;;;;;;;15.27;41.18;94472.38;4241603;28;20043;-72
2024/02/24 09:03:23;;;;;;;3.88;1.52;;;;;;;15.41;41.28;94467.16;4242580;28;20047;-71
2024/02/24 09:05:26;;;;;;;6.90;2.17;;;;;;;15.43;41.27;94460.69;4212134;28;20099;-73
2024/02/24 09:07:28;;;;;;;4.80;2.10;;;;;;;15.60;40.97;94449.81;4242170;28;20039;-73
2024/02/24 09:09:30;;;;;;;4.47;1.60;;;;;;;15.64;40.68;94459.78;4241860;28;20055;-72
2024/02/24 09:11:32;;;;;;;4.68;1.50;;;;;;;15.79;40.54;94482.59;4214520;28;20097;-72
2024/02/24 09:13:34;;;;;;;3.80;1.48;;;;;;;15.75;40.16;94456.59;4242086;28;20041;-69
2024/02/24 09:15:36;;;;;;;4.63;1.80;;;;;;;15.89;40.32;94473.31;4242606;28;20201;-70
2024/02/24 09:17:38;;;;;;;5.38;2.00;;;;;;;16.16;40.05;94470.78;4221695;28;20070;-70
2024/02/24 09:19:43;;;;;;;2.92;1.95;;;;;;;16.32;39.47;94461.66;4242709;28;20550;-71
2024/02/24 09:21:45;;;;;;;3.38;1.60;;;;;;;16.44;39.11;94470.63;4234545;28;20081;-69
2024/02/24 09:23:47;;;;;;;4.32;1.60;;;;;;;16.77;38.96;94451.34;4236756;28;20149;-73
2024/02/24 09:25:49;;;;;;;6.50;2.80;;;;;;;16.29;39.23;94454.94;4236835;28;20043;-72
2024/02/24 09:27:51;;;;;;;2.13;1.40;;;;;;;16.03;40.09;94455.69;4237317;28;20048;-71
2024/02/24 09:29:53;;;;;;;2.17;1.50;;;;;;;16.17;39.91;94456.53;4235660;28;20039;-72
2024/02/24 09:31:55;;;;;;;2.42;1.80;;;;;;;16.40;39.58;94463.31;4242678;28;20051;-71
2024/02/24 09:33:57;;;;;;;4.55;1.90;;;;;;;16.73;38.65;94469.44;4242335;28;20047;-73
2024/02/24 09:36:00;;;;;;;3.90;2.05;;;;;;;17.08;38.47;94471.09;4205992;28;20193;-72